Página principal
METAR-TAF:

METAR-TAF

Aeroportos :

Aeroporto Internacional de Chhatrapati Shivaji

Bombaim, Índia

latitude: 19-07N, longitude: 072-51E, altura: 8 m

Observação actual do tempo

O boletim foi feito há 26 minutos, às 20:30 UTC
Vento calmo
Temperatura 25°C
Humidade 57%
Pressão 1014 hPa
Visibilidade: 3000 m
fumo

METAR: VABB 122030Z 00000KT 3000 FU NSC 25/16 Q1014 NOSIG

Hora: 02:26 (20:56 UTC)

Previsão

O boletim foi feito há 56 minutos, às 20:00 UTC
Previsão válida de 12 às 21 UTC a 13 às 06 UTC
Vento 3 kt de es-sudeste
Visibilidade: 2200 m
bruma
Tornando-se
de 13 às 03 UTC a 13 às 05 UTC
Vento 5 kt de nordeste
Visibilidade: 3000 m
Poucas nuvensa uma altura de 2000 ft
fumo

TAF: VABB 122000Z 1221/1306 11003KT 2200 HZ NSC BECMG 1303/1305 05005KT 3000 FU FEW020

Observações e previsões do tempo de mais de 4000 aeroportos (mensagens METAR e TAF).

As estações disponíveis são os pontos amarelos e vermelhos sobre o mapa.

Mova o rato sobre o mapa para ver o nome da estação.

Depois clique no ponto para visualizar as observações e previsões meteorológicas.

Para alterar o mapa : clique nos botões verdes com uma cruz preta para aumentar o zoom; no botão verde com uma pitada de zoom; ou nas setas verdes para mapas adjacentes.


METAR-TAF: